sensor_id;sensor_type;location;lat;lon;timestamp;pressure;altitude;pressure_sealevel;temperature;humidity
25650;BME280;13505;45.196;5.696;2023-11-22T05:35:14;99308.56;;;9.26;84.17
25650;BME280;13505;45.196;5.696;2023-11-22T05:40:05;99327.44;;;9.38;83.50
25650;BME280;13505;45.196;5.696;2023-11-22T05:44:55;99341.44;;;9.38;83.19
25650;BME280;13505;45.196;5.696;2023-11-22T05:49:46;99352.78;;;9.40;83.61
25650;BME280;13505;45.196;5.696;2023-11-22T05:54:36;99344.75;;;9.43;83.23
25650;BME280;13505;45.196;5.696;2023-11-22T05:59:27;99348.41;;;9.39;83.22
25650;BME280;13505;45.196;5.696;2023-11-22T06:04:17;99352.56;;;9.45;82.56
25650;BME280;13505;45.196;5.696;2023-11-22T06:09:08;99354.41;;;9.43;82.29
25650;BME280;13505;45.196;5.696;2023-11-22T06:14:00;99351.88;;;9.41;82.15
25650;BME280;13505;45.196;5.696;2023-11-22T06:18:50;99354.72;;;9.35;83.44
25650;BME280;13505;45.196;5.696;2023-11-22T06:23:41;99364.44;;;9.33;83.28
25650;BME280;13505;45.196;5.696;2023-11-22T06:28:32;99392.03;;;9.46;82.68
25650;BME280;13505;45.196;5.696;2023-11-22T06:33:22;99392.03;;;9.46;81.72
25650;BME280;13505;45.196;5.696;2023-11-22T06:38:12;99382.59;;;9.41;81.31
25650;BME280;13505;45.196;5.696;2023-11-22T06:43:03;99391.41;;;9.40;81.95
25650;BME280;13505;45.196;5.696;2023-11-22T06:47:57;99391.84;;;9.51;81.38
25650;BME280;13505;45.196;5.696;2023-11-22T06:52:48;99390.25;;;9.47;81.27
25650;BME280;13505;45.196;5.696;2023-11-22T06:57:40;99385.66;;;9.52;81.23
25650;BME280;13505;45.196;5.696;2023-11-22T07:02:33;99381.50;;;9.46;81.38
25650;BME280;13505;45.196;5.696;2023-11-22T07:07:25;99398.91;;;9.51;81.51
25650;BME280;13505;45.196;5.696;2023-11-22T07:12:15;99407.59;;;9.53;80.84
25650;BME280;13505;45.196;5.696;2023-11-22T07:17:06;99407.03;;;9.44;81.57
25650;BME280;13505;45.196;5.696;2023-11-22T07:21:57;99412.88;;;9.53;81.42
25650;BME280;13505;45.196;5.696;2023-11-22T07:26:48;99415.25;;;9.59;81.27
25650;BME280;13505;45.196;5.696;2023-11-22T07:31:39;99412.63;;;9.59;80.52
25650;BME280;13505;45.196;5.696;2023-11-22T07:36:29;99411.03;;;9.55;80.57
25650;BME280;13505;45.196;5.696;2023-11-22T07:41:20;99419.56;;;9.61;80.21
25650;BME280;13505;45.196;5.696;2023-11-22T07:46:11;99427.28;;;9.66;79.90
25650;BME280;13505;45.196;5.696;2023-11-22T07:51:05;99441.59;;;9.59;80.49
25650;BME280;13505;45.196;5.696;2023-11-22T07:55:55;99433.59;;;9.62;78.85
25650;BME280;13505;45.196;5.696;2023-11-22T08:00:46;99423.94;;;9.61;78.74
25650;BME280;13505;45.196;5.696;2023-11-22T08:05:37;99433.00;;;9.77;77.19
25650;BME280;13505;45.196;5.696;2023-11-22T08:10:30;99439.56;;;9.66;78.38
25650;BME280;13505;45.196;5.696;2023-11-22T08:15:20;99432.44;;;9.69;78.43
25650;BME280;13505;45.196;5.696;2023-11-22T08:20:12;99447.94;;;9.53;79.76
25650;BME280;13505;45.196;5.696;2023-11-22T08:25:05;99447.44;;;9.43;80.21
25650;BME280;13505;45.196;5.696;2023-11-22T08:29:55;99447.47;;;9.66;79.34
25650;BME280;13505;45.196;5.696;2023-11-22T08:34:46;99458.72;;;9.71;79.65
25650;BME280;13505;45.196;5.696;2023-11-22T08:39:36;99460.75;;;9.86;78.58
25650;BME280;13505;45.196;5.696;2023-11-22T08:44:26;99466.09;;;9.85;78.48
25650;BME280;13505;45.196;5.696;2023-11-22T08:49:16;99454.56;;;9.87;78.22
25650;BME280;13505;45.196;5.696;2023-11-22T08:54:07;99467.72;;;9.87;77.54
25650;BME280;13505;45.196;5.696;2023-11-22T08:58:57;99457.94;;;9.91;76.95
25650;BME280;13505;45.196;5.696;2023-11-22T09:03:48;99455.16;;;10.18;75.83
25650;BME280;13505;45.196;5.696;2023-11-22T09:08:40;99464.59;;;10.24;74.79
25650;BME280;13505;45.196;5.696;2023-11-22T09:13:30;99462.69;;;10.27;74.39
25650;BME280;13505;45.196;5.696;2023-11-22T09:18:20;99463.63;;;10.49;78.06
25650;BME280;13505;45.196;5.696;2023-11-22T09:23:12;99462.94;;;10.21;73.24
25650;BME280;13505;45.196;5.696;2023-11-22T09:28:05;99466.34;;;10.23;74.12
25650;BME280;13505;45.196;5.696;2023-11-22T09:33:06;99459.97;;;10.53;72.42
25650;BME280;13505;45.196;5.696;2023-11-22T09:37:58;99462.31;;;10.59;71.65
25650;BME280;13505;45.196;5.696;2023-11-22T09:42:48;99456.66;;;10.68;72.08
25650;BME280;13505;45.196;5.696;2023-11-22T09:47:41;99468.16;;;10.88;72.39
25650;BME280;13505;45.196;5.696;2023-11-22T09:52:33;99449.56;;;11.71;78.64
25650;BME280;13505;45.196;5.696;2023-11-22T09:57:26;99461.97;;;11.10;69.04
25650;BME280;13505;45.196;5.696;2023-11-22T10:02:20;99454.28;;;11.24;68.27
25650;BME280;13505;45.196;5.696;2023-11-22T10:07:16;99450.88;;;11.41;67.76
25650;BME280;13505;45.196;5.696;2023-11-22T10:12:07;99438.19;;;11.50;68.00
25650;BME280;13505;45.196;5.696;2023-11-22T10:16:59;99447.81;;;11.51;66.92
25650;BME280;13505;45.196;5.696;2023-11-22T10:22:02;99434.03;;;11.44;67.21
25650;BME280;13505;45.196;5.696;2023-11-22T10:26:55;99449.53;;;11.33;66.94
25650;BME280;13505;45.196;5.696;2023-11-22T10:31:47;99449.97;;;11.42;67.11
25650;BME280;13505;45.196;5.696;2023-11-22T10:36:40;99452.16;;;11.33;65.43
25650;BME280;13505;45.196;5.696;2023-11-22T10:41:30;99445.84;;;11.56;66.91
25650;BME280;13505;45.196;5.696;2023-11-22T10:46:27;99445.75;;;11.38;66.96
25650;BME280;13505;45.196;5.696;2023-11-22T10:51:18;99451.84;;;11.59;65.40
25650;BME280;13505;45.196;5.696;2023-11-22T10:56:15;99446.84;;;11.72;65.35
25650;BME280;13505;45.196;5.696;2023-11-22T11:01:06;99437.84;;;11.77;64.56
25650;BME280;13505;45.196;5.696;2023-11-22T11:05:58;99423.72;;;11.78;63.71
25650;BME280;13505;45.196;5.696;2023-11-22T11:10:48;99415.72;;;12.35;62.98
25650;BME280;13505;45.196;5.696;2023-11-22T11:15:42;99410.59;;;12.32;62.05
25650;BME280;13505;45.196;5.696;2023-11-22T11:21:07;99421.72;;;12.56;61.06
25650;BME280;13505;45.196;5.696;2023-11-22T11:25:57;99417.81;;;12.46;59.40
25650;BME280;13505;45.196;5.696;2023-11-22T11:30:49;99420.91;;;12.37;59.83
25650;BME280;13505;45.196;5.696;2023-11-22T11:35:42;99414.56;;;12.41;60.09
25650;BME280;13505;45.196;5.696;2023-11-22T11:40:36;99421.16;;;12.32;60.26
25650;BME280;13505;45.196;5.696;2023-11-22T11:45:27;99418.28;;;12.37;58.72
25650;BME280;13505;45.196;5.696;2023-11-22T11:50:20;99419.44;;;12.31;59.26
25650;BME280;13505;45.196;5.696;2023-11-22T11:55:10;99412.22;;;12.35;57.76
25650;BME280;13505;45.196;5.696;2023-11-22T12:00:00;99417.88;;;12.27;58.05
25650;BME280;13505;45.196;5.696;2023-11-22T12:04:53;99412.38;;;12.32;57.63
25650;BME280;13505;45.196;5.696;2023-11-22T12:09:44;99416.66;;;12.34;57.29
25650;BME280;13505;45.196;5.696;2023-11-22T12:14:36;99425.69;;;12.48;57.02
25650;BME280;13505;45.196;5.696;2023-11-22T12:19:28;99442.50;;;12.47;56.47
25650;BME280;13505;45.196;5.696;2023-11-22T12:24:21;99427.53;;;12.28;55.92
25650;BME280;13505;45.196;5.696;2023-11-22T12:29:12;99447.56;;;12.51;55.60
25650;BME280;13505;45.196;5.696;2023-11-22T12:34:04;99443.56;;;12.42;56.39
25650;BME280;13505;45.196;5.696;2023-11-22T12:38:57;99460.38;;;12.41;56.52
25650;BME280;13505;45.196;5.696;2023-11-22T12:44:04;99465.22;;;12.51;55.93
25650;BME280;13505;45.196;5.696;2023-11-22T12:49:05;99447.88;;;12.63;55.95
25650;BME280;13505;45.196;5.696;2023-11-22T12:53:56;99442.44;;;12.48;56.88
25650;BME280;13505;45.196;5.696;2023-11-22T12:58:47;99441.34;;;12.70;55.13
25650;BME280;13505;45.196;5.696;2023-11-22T13:03:38;99445.63;;;12.55;55.02
25650;BME280;13505;45.196;5.696;2023-11-22T13:08:28;99440.53;;;12.68;54.96
25650;BME280;13505;45.196;5.696;2023-11-22T13:13:23;99447.00;;;12.62;55.79
25650;BME280;13505;45.196;5.696;2023-11-22T13:18:15;99440.16;;;12.58;55.76
25650;BME280;13505;45.196;5.696;2023-11-22T13:23:06;99456.91;;;12.59;55.32
25650;BME280;13505;45.196;5.696;2023-11-22T13:27:57;99460.69;;;12.53;55.94
25650;BME280;13505;45.196;5.696;2023-11-22T13:32:49;99464.84;;;12.76;56.38
25650;BME280;13505;45.196;5.696;2023-11-22T13:37:41;99439.84;;;13.00;55.44
25650;BME280;13505;45.196;5.696;2023-11-22T13:42:32;99457.75;;;13.12;54.93
25650;BME280;13505;45.196;5.696;2023-11-22T13:47:23;99467.91;;;13.55;54.62
25650;BME280;13505;45.196;5.696;2023-11-22T13:52:13;99490.03;;;13.54;54.82
25650;BME280;13505;45.196;5.696;2023-11-22T13:57:03;99490.22;;;13.67;54.99
25650;BME280;13505;45.196;5.696;2023-11-22T14:01:54;99485.66;;;13.87;55.38
25650;BME280;13505;45.196;5.696;2023-11-22T14:06:44;99510.78;;;13.79;55.35
25650;BME280;13505;45.196;5.696;2023-11-22T14:11:35;99542.53;;;13.63;57.02
25650;BME280;13505;45.196;5.696;2023-11-22T14:16:27;99566.44;;;13.46;58.01
25650;BME280;13505;45.196;5.696;2023-11-22T14:21:17;99577.59;;;12.98;61.63
25650;BME280;13505;45.196;5.696;2023-11-22T14:26:08;99582.78;;;12.64;64.03
25650;BME280;13505;45.196;5.696;2023-11-22T14:30:58;99596.22;;;12.40;65.38
25650;BME280;13505;45.196;5.696;2023-11-22T14:35:49;99613.88;;;12.21;66.02
25650;BME280;13505;45.196;5.696;2023-11-22T14:40:39;99610.16;;;11.85;68.23
25650;BME280;13505;45.196;5.696;2023-11-22T14:45:30;99622.13;;;11.73;68.66
25650;BME280;13505;45.196;5.696;2023-11-22T14:50:22;99630.31;;;11.67;67.92
25650;BME280;13505;45.196;5.696;2023-11-22T14:55:15;99643.25;;;11.73;67.67
25650;BME280;13505;45.196;5.696;2023-11-22T15:00:06;99644.31;;;11.48;69.07
25650;BME280;13505;45.196;5.696;2023-11-22T15:05:03;99649.38;;;11.32;70.07
25650;BME280;13505;45.196;5.696;2023-11-22T15:09:55;99654.59;;;11.34;69.12
25650;BME280;13505;45.196;5.696;2023-11-22T15:14:45;99671.63;;;11.04;71.07
25650;BME280;13505;45.196;5.696;2023-11-22T15:19:35;99672.41;;;11.06;71.33
25650;BME280;13505;45.196;5.696;2023-11-22T15:24:28;99691.34;;;10.95;71.40
25650;BME280;13505;45.196;5.696;2023-11-22T15:29:20;99702.28;;;10.84;71.23
25650;BME280;13505;45.196;5.696;2023-11-22T15:34:11;99718.44;;;10.77;71.95
25650;BME280;13505;45.196;5.696;2023-11-22T15:39:01;99736.63;;;10.60;72.42
25650;BME280;13505;45.196;5.696;2023-11-22T15:43:52;99738.34;;;10.61;72.55
25650;BME280;13505;45.196;5.696;2023-11-22T15:48:43;99754.56;;;10.25;73.48
25650;BME280;13505;45.196;5.696;2023-11-22T15:53:34;99749.38;;;10.22;74.08
25650;BME280;13505;45.196;5.696;2023-11-22T15:58:24;99763.50;;;10.19;74.51
25650;BME280;13505;45.196;5.696;2023-11-22T16:03:15;99756.94;;;10.06;75.42
25650;BME280;13505;45.196;5.696;2023-11-22T16:08:07;99763.97;;;9.80;76.04
25650;BME280;13505;45.196;5.696;2023-11-22T16:12:58;99794.97;;;9.72;76.79
25650;BME280;13505;45.196;5.696;2023-11-22T16:17:48;99804.88;;;9.65;77.16
25650;BME280;13505;45.196;5.696;2023-11-22T16:22:40;99790.13;;;9.59;78.02
25650;BME280;13505;45.196;5.696;2023-11-22T16:27:37;99803.19;;;9.62;77.75
25650;BME280;13505;45.196;5.696;2023-11-22T16:32:27;99815.56;;;9.59;77.21
25650;BME280;13505;45.196;5.696;2023-11-22T16:37:17;99811.38;;;9.53;77.31
25650;BME280;13505;45.196;5.696;2023-11-22T16:42:08;99825.72;;;9.43;77.83
25650;BME280;13505;45.196;5.696;2023-11-22T16:46:59;99822.38;;;9.38;77.98
25650;BME280;13505;45.196;5.696;2023-11-22T16:51:51;99824.28;;;9.32;77.65
25650;BME280;13505;45.196;5.696;2023-11-22T16:56:41;99813.72;;;9.34;77.80
25650;BME280;13505;45.196;5.696;2023-11-22T17:01:31;99826.13;;;9.30;78.03
25650;BME280;13505;45.196;5.696;2023-11-22T17:06:22;99821.94;;;9.23;77.81
25650;BME280;13505;45.196;5.696;2023-11-22T17:11:14;99824.88;;;9.14;77.05
25650;BME280;13505;45.196;5.696;2023-11-22T17:16:05;99809.66;;;8.92;77.76
25650;BME280;13505;45.196;5.696;2023-11-22T17:20:56;99809.47;;;9.00;77.59
25650;BME280;13505;45.196;5.696;2023-11-22T17:25:46;99814.38;;;8.80;78.06
25650;BME280;13505;45.196;5.696;2023-11-22T17:30:37;99836.31;;;8.81;77.98
25650;BME280;13505;45.196;5.696;2023-11-22T17:35:27;99840.25;;;8.98;78.11
25650;BME280;13505;45.196;5.696;2023-11-22T17:40:18;99865.00;;;8.57;77.94
25650;BME280;13505;45.196;5.696;2023-11-22T17:45:08;99876.94;;;8.69;78.52
25650;BME280;13505;45.196;5.696;2023-11-22T17:49:59;99856.00;;;8.66;78.90
25650;BME280;13505;45.196;5.696;2023-11-22T17:54:49;99880.56;;;8.67;78.85
25650;BME280;13505;45.196;5.696;2023-11-22T17:59:40;99863.16;;;8.61;78.64
25650;BME280;13505;45.196;5.696;2023-11-22T18:04:31;99884.38;;;8.53;79.00
25650;BME280;13505;45.196;5.696;2023-11-22T18:09:21;99887.06;;;8.51;79.04
25650;BME280;13505;45.196;5.696;2023-11-22T18:14:12;99890.16;;;8.31;77.99
25650;BME280;13505;45.196;5.696;2023-11-22T18:19:02;99890.59;;;8.14;78.33
25650;BME280;13505;45.196;5.696;2023-11-22T18:23:53;99899.25;;;8.18;78.07
25650;BME280;13505;45.196;5.696;2023-11-22T18:28:45;99903.72;;;8.14;78.63
25650;BME280;13505;45.196;5.696;2023-11-22T18:33:36;99912.72;;;8.04;78.69
25650;BME280;13505;45.196;5.696;2023-11-22T18:38:26;99920.53;;;8.07;78.63
25650;BME280;13505;45.196;5.696;2023-11-22T18:43:17;99930.38;;;7.99;80.03
25650;BME280;13505;45.196;5.696;2023-11-22T18:48:07;99939.16;;;7.98;79.82
25650;BME280;13505;45.196;5.696;2023-11-22T18:52:57;99935.97;;;7.83;80.09
25650;BME280;13505;45.196;5.696;2023-11-22T18:57:48;99952.69;;;7.79;80.34
25650;BME280;13505;45.196;5.696;2023-11-22T19:02:38;99943.63;;;7.92;80.63
25650;BME280;13505;45.196;5.696;2023-11-22T19:07:28;99966.44;;;7.92;79.61
25650;BME280;13505;45.196;5.696;2023-11-22T19:12:19;99951.69;;;7.85;79.90
25650;BME280;13505;45.196;5.696;2023-11-22T19:17:09;99961.50;;;7.76;80.00
25650;BME280;13505;45.196;5.696;2023-11-22T19:21:59;99970.91;;;7.87;80.24
25650;BME280;13505;45.196;5.696;2023-11-22T19:26:50;99959.91;;;7.69;80.33
25650;BME280;13505;45.196;5.696;2023-11-22T19:31:43;99977.06;;;7.86;80.43
25650;BME280;13505;45.196;5.696;2023-11-22T19:36:33;99985.84;;;7.86;80.50
25650;BME280;13505;45.196;5.696;2023-11-22T19:41:24;99993.38;;;8.00;79.87
25650;BME280;13505;45.196;5.696;2023-11-22T19:46:14;100006.78;;;7.88;79.58
25650;BME280;13505;45.196;5.696;2023-11-22T19:51:05;100023.19;;;7.99;79.15
25650;BME280;13505;45.196;5.696;2023-11-22T19:55:56;100016.97;;;8.03;79.07
25650;BME280;13505;45.196;5.696;2023-11-22T20:00:49;100022.16;;;8.06;79.11
25650;BME280;13505;45.196;5.696;2023-11-22T20:05:39;100031.66;;;8.14;79.29
25650;BME280;13505;45.196;5.696;2023-11-22T20:10:29;100034.47;;;8.04;78.28
25650;BME280;13505;45.196;5.696;2023-11-22T20:15:20;100044.19;;;7.99;78.46
25650;BME280;13505;45.196;5.696;2023-11-22T20:20:10;100043.44;;;7.94;78.78
25650;BME280;13505;45.196;5.696;2023-11-22T20:25:01;100028.59;;;7.91;77.93
25650;BME280;13505;45.196;5.696;2023-11-22T20:29:53;100013.88;;;7.84;79.12
25650;BME280;13505;45.196;5.696;2023-11-22T20:34:43;100015.75;;;7.77;79.32
25650;BME280;13505;45.196;5.696;2023-11-22T20:39:33;100007.97;;;7.74;79.26
25650;BME280;13505;45.196;5.696;2023-11-22T20:44:24;100015.59;;;7.85;79.26
25650;BME280;13505;45.196;5.696;2023-11-22T20:49:14;100020.91;;;7.82;79.06
25650;BME280;13505;45.196;5.696;2023-11-22T20:54:04;100010.22;;;7.47;79.03
25650;BME280;13505;45.196;5.696;2023-11-22T20:58:55;100009.22;;;7.56;80.70
25650;BME280;13505;45.196;5.696;2023-11-22T21:03:45;100020.38;;;7.66;79.34
25650;BME280;13505;45.196;5.696;2023-11-22T21:08:35;100007.97;;;7.73;79.35
25650;BME280;13505;45.196;5.696;2023-11-22T21:13:26;100012.84;;;7.49;79.65
25650;BME280;13505;45.196;5.696;2023-11-22T21:18:16;100007.38;;;7.60;79.45
25650;BME280;13505;45.196;5.696;2023-11-22T21:23:06;99998.88;;;7.47;79.29
25650;BME280;13505;45.196;5.696;2023-11-22T21:27:57;100023.88;;;7.66;78.84
25650;BME280;13505;45.196;5.696;2023-11-22T21:32:48;100010.94;;;7.57;79.40
25650;BME280;13505;45.196;5.696;2023-11-22T21:37:38;100007.25;;;7.66;79.20
25650;BME280;13505;45.196;5.696;2023-11-22T21:42:28;100005.50;;;7.65;79.04
25650;BME280;13505;45.196;5.696;2023-11-22T21:47:19;100021.25;;;7.66;78.83
25650;BME280;13505;45.196;5.696;2023-11-22T21:52:09;100015.06;;;7.69;79.51
25650;BME280;13505;45.196;5.696;2023-11-22T21:57:00;100015.53;;;7.46;78.51
25650;BME280;13505;45.196;5.696;2023-11-22T22:01:51;100014.72;;;7.44;79.22
25650;BME280;13505;45.196;5.696;2023-11-22T22:06:41;100039.75;;;7.60;79.13
25650;BME280;13505;45.196;5.696;2023-11-22T22:11:33;100034.66;;;7.51;78.54
25650;BME280;13505;45.196;5.696;2023-11-22T22:16:24;100042.63;;;7.46;78.83
25650;BME280;13505;45.196;5.696;2023-11-22T22:21:14;100038.09;;;7.54;78.35
25650;BME280;13505;45.196;5.696;2023-11-22T22:26:04;100040.56;;;7.62;78.09
25650;BME280;13505;45.196;5.696;2023-11-22T22:30:55;100054.13;;;7.40;80.20
25650;BME280;13505;45.196;5.696;2023-11-22T22:35:46;100059.03;;;7.58;78.69
25650;BME280;13505;45.196;5.696;2023-11-22T22:40:37;100078.22;;;7.63;78.70
25650;BME280;13505;45.196;5.696;2023-11-22T22:45:27;100072.75;;;7.74;78.44
25650;BME280;13505;45.196;5.696;2023-11-22T22:50:17;100071.84;;;7.75;77.81
25650;BME280;13505;45.196;5.696;2023-11-22T22:55:08;100085.78;;;7.78;77.88
25650;BME280;13505;45.196;5.696;2023-11-22T22:59:58;100090.44;;;7.64;77.60
